Time,TemperatureF,DewpointF,PressureIn,WindDirection,WindDirectionDegrees,WindSpeedMPH,WindSpeedGustMPH,Humidity,HourlyPrecipIn,Conditions,Clouds,dailyrainin,SoftwareType,DateUTC
2013-01-29 00:00:00,58.7,56.1,29.99,SE,135,7.0,7.0,91,0.00,,,0.01,Wunderground v.1.15,2013-01-29 06:00:00,
2013-01-29 00:05:00,58.6,56.0,29.98,SE,137,7.0,7.0,91,0.00,,,0.01,Wunderground v.1.15,2013-01-29 06:05:00,
2013-01-29 00:10:00,58.4,55.8,29.98,SE,135,7.0,9.0,91,0.00,,,0.00,Wunderground v.1.15,2013-01-29 06:10:00,
2013-01-29 00:20:00,58.2,55.6,29.98,SE,131,7.0,7.0,91,0.00,,,0.00,Wunderground v.1.15,2013-01-29 06:20:00,
2013-01-29 00:25:00,58.1,55.8,29.98,SE,124,6.0,7.0,92,0.00,,,0.00,Wunderground v.1.15,2013-01-29 06:25:00,
2013-01-29 00:30:00,58.0,55.4,29.97,SE,142,7.0,7.0,91,0.00,,,0.00,Wunderground v.1.15,2013-01-29 06:30:00,
2013-01-29 00:35:00,57.9,55.3,29.97,SE,135,8.0,8.0,91,0.00,,,0.00,Wunderground v.1.15,2013-01-29 06:35:00,
2013-01-29 00:40:00,57.8,55.2,29.97,ESE,117,8.0,8.0,91,0.00,,,0.00,Wunderground v.1.15,2013-01-29 06:40:00,
2013-01-29 00:45:00,57.8,55.2,29.97,SSE,147,7.0,9.0,91,0.00,,,0.00,Wunderground v.1.15,2013-01-29 06:45:00,
2013-01-29 00:50:00,57.6,55.3,29.97,SE,129,7.0,7.0,92,0.00,,,0.00,Wunderground v.1.15,2013-01-29 06:50:00,
2013-01-29 00:55:00,57.5,55.2,29.97,SE,137,7.0,7.0,92,0.00,,,0.00,Wunderground v.1.15,2013-01-29 06:55:00,
2013-01-29 01:00:00,57.4,55.1,29.96,SE,125,7.0,7.0,92,0.00,,,0.00,Wunderground v.1.15,2013-01-29 07:00:00,
2013-01-29 01:05:00,57.4,55.1,29.95,SE,135,9.0,9.0,92,0.00,,,0.00,Wunderground v.1.15,2013-01-29 07:05:00,
2013-01-29 01:10:00,57.5,55.2,29.95,SSE,152,10.0,11.0,92,0.00,,,0.00,Wunderground v.1.15,2013-01-29 07:10:00,
2013-01-29 01:15:00,57.5,55.2,29.95,SSE,155,10.0,11.0,92,0.00,,,0.00,Wunderground v.1.15,2013-01-29 07:15:00,
2013-01-29 01:20:00,57.4,55.1,29.95,SE,128,9.0,11.0,92,0.00,,,0.00,Wunderground v.1.15,2013-01-29 07:20:00,
2013-01-29 01:25:00,57.4,55.1,29.95,SSE,161,9.0,11.0,92,0.00,,,0.00,Wunderground v.1.15,2013-01-29 07:25:00,
2013-01-29 01:30:00,57.3,55.0,29.94,SSE,157,9.0,13.0,92,0.00,,,0.00,Wunderground v.1.15,2013-01-29 07:30:00,
2013-01-29 01:35:00,57.4,55.1,29.94,SE,134,10.0,16.0,92,0.00,,,0.00,Wunderground v.1.15,2013-01-29 07:35:00,
2013-01-29 01:40:00,57.5,55.5,29.94,SSE,162,11.0,11.0,93,0.00,,,0.00,Wunderground v.1.15,2013-01-29 07:40:00,
2013-01-29 01:45:00,57.6,55.6,29.94,SE,128,10.0,13.0,93,0.00,,,0.00,Wunderground v.1.15,2013-01-29 07:45:00,
2013-01-29 01:50:00,57.8,55.8,29.94,SE,140,9.0,9.0,93,0.00,,,0.00,Wunderground v.1.15,2013-01-29 07:50:00,
2013-01-29 01:55:00,57.9,55.9,29.94,SE,146,10.0,14.0,93,0.00,,,0.00,Wunderground v.1.15,2013-01-29 07:55:00,
2013-01-29 02:00:00,58.1,55.8,29.93,South,173,11.0,12.0,92,0.00,,,0.00,Wunderground v.1.15,2013-01-29 08:00:00,
2013-01-29 02:05:00,58.2,55.9,29.93,SSE,148,12.0,18.0,92,0.00,,,0.00,Wunderground v.1.15,2013-01-29 08:05:00,
2013-01-29 02:10:00,58.4,56.1,29.93,SE,141,12.0,16.0,92,0.00,,,0.00,Wunderground v.1.15,2013-01-29 08:10:00,
2013-01-29 02:15:00,58.3,56.0,29.93,SE,136,12.0,16.0,92,0.00,,,0.00,Wunderground v.1.15,2013-01-29 08:15:00,
2013-01-29 02:20:00,58.3,56.0,29.93,SE,139,11.0,11.0,92,0.00,,,0.00,Wunderground v.1.15,2013-01-29 08:20:00,
2013-01-29 02:25:00,58.2,55.9,29.93,SE,141,9.0,11.0,92,0.00,,,0.00,Wunderground v.1.15,2013-01-29 08:25:00,
2013-01-29 02:30:00,58.2,55.9,29.93,SE,144,9.0,13.0,92,0.00,,,0.00,Wunderground v.1.15,2013-01-29 08:30:00,
2013-01-29 02:35:00,58.1,55.8,29.93,SSE,152,9.0,13.0,92,0.00,,,0.00,Wunderground v.1.15,2013-01-29 08:35:00,
2013-01-29 02:40:00,58.1,55.8,29.93,ESE,116,9.0,9.0,92,0.00,,,0.00,Wunderground v.1.15,2013-01-29 08:40:00,
2013-01-29 02:45:00,58.1,55.8,29.92,SSE,157,9.0,9.0,92,0.00,,,0.00,Wunderground v.1.15,2013-01-29 08:45:00,
2013-01-29 02:50:00,58.0,55.7,29.92,SE,141,9.0,9.0,92,0.00,,,0.00,Wunderground v.1.15,2013-01-29 08:50:00,
2013-01-29 02:55:00,58.0,55.7,29.92,SE,138,9.0,11.0,92,0.00,,,0.00,Wunderground v.1.15,2013-01-29 08:55:00,
2013-01-29 03:00:00,58.0,55.7,29.92,SSE,157,10.0,10.0,92,0.00,,,0.00,Wunderground v.1.15,2013-01-29 09:00:00,
2013-01-29 03:05:00,58.0,55.7,29.92,SE,142,11.0,11.0,92,0.00,,,0.00,Wunderground v.1.15,2013-01-29 09:05:00,
2013-01-29 03:10:00,57.9,55.9,29.92,SE,137,11.0,14.0,93,0.00,,,0.00,Wunderground v.1.15,2013-01-29 09:10:00,
2013-01-29 03:15:00,57.8,55.8,29.93,SSE,164,11.0,14.0,93,0.00,,,0.00,Wunderground v.1.15,2013-01-29 09:15:00,
2013-01-29 03:20:00,57.8,55.8,29.93,SE,144,10.0,12.0,93,0.00,,,0.00,Wunderground v.1.15,2013-01-29 09:20:00,
2013-01-29 03:25:00,57.8,55.8,29.93,SE,141,9.0,12.0,93,0.00,,,0.00,Wunderground v.1.15,2013-01-29 09:25:00,
2013-01-29 03:30:00,57.8,55.8,29.92,SE,135,9.0,13.0,93,0.00,,,0.00,Wunderground v.1.15,2013-01-29 09:30:00,
2013-01-29 03:35:00,57.8,55.8,29.92,SE,131,10.0,13.0,93,0.00,,,0.00,Wunderground v.1.15,2013-01-29 09:35:00,
2013-01-29 03:40:00,57.7,55.7,29.93,ESE,120,9.0,12.0,93,0.00,,,0.00,Wunderground v.1.15,2013-01-29 09:40:00,
2013-01-29 03:45:00,57.8,55.8,29.93,SSE,160,7.0,12.0,93,0.00,,,0.00,Wunderground v.1.15,2013-01-29 09:45:00,
2013-01-29 03:50:00,57.8,55.8,29.93,SE,143,6.0,6.0,93,0.00,,,0.00,Wunderground v.1.15,2013-01-29 09:50:00,
2013-01-29 03:55:00,57.9,55.9,29.93,SE,139,6.0,8.0,93,0.00,,,0.00,Wunderground v.1.15,2013-01-29 09:55:00,
2013-01-29 04:00:00,58.1,56.1,29.93,SE,128,7.0,7.0,93,0.00,,,0.00,Wunderground v.1.15,2013-01-29 10:00:00,
2013-01-29 04:05:00,58.5,56.5,29.92,SSE,164,8.0,14.0,93,0.00,,,0.00,Wunderground v.1.15,2013-01-29 10:05:00,
2013-01-29 04:10:00,59.1,57.1,29.92,SSE,159,10.0,10.0,93,0.00,,,0.00,Wunderground v.1.15,2013-01-29 10:10:00,
2013-01-29 04:20:00,59.7,57.4,29.92,SSE,164,11.0,11.0,92,0.00,,,0.00,Wunderground v.1.15,2013-01-29 10:20:00,
2013-01-29 04:25:00,59.8,57.2,29.92,SSE,154,11.0,12.0,91,0.00,,,0.00,Wunderground v.1.15,2013-01-29 10:25:00,
2013-01-29 04:30:00,59.9,57.3,29.92,SSE,166,10.0,10.0,91,0.00,,,0.00,Wunderground v.1.15,2013-01-29 10:30:00,
2013-01-29 04:35:00,59.9,57.3,29.92,SSE,150,11.0,11.0,91,0.00,,,0.00,Wunderground v.1.15,2013-01-29 10:35:00,
2013-01-29 04:40:00,59.9,57.3,29.91,South,170,11.0,11.0,91,0.00,,,0.00,Wunderground v.1.15,2013-01-29 10:40:00,
2013-01-29 04:45:00,59.9,57.3,29.91,SSE,148,11.0,13.0,91,0.00,,,0.00,Wunderground v.1.15,2013-01-29 10:45:00,
2013-01-29 04:50:00,59.8,57.2,29.91,SSE,164,11.0,11.0,91,0.00,,,0.00,Wunderground v.1.15,2013-01-29 10:50:00,
2013-01-29 04:55:00,59.8,57.5,29.91,SE,139,10.0,11.0,92,0.00,,,0.00,Wunderground v.1.15,2013-01-29 10:55:00,
2013-01-29 05:00:00,59.8,57.2,29.91,SE,146,9.0,9.0,91,0.00,,,0.00,Wunderground v.1.15,2013-01-29 11:00:00,
2013-01-29 05:05:00,59.8,57.5,29.91,ESE,108,9.0,9.0,92,0.00,,,0.00,Wunderground v.1.15,2013-01-29 11:05:00,
2013-01-29 05:10:00,59.8,57.5,29.91,SSE,164,10.0,10.0,92,0.00,,,0.00,Wunderground v.1.15,2013-01-29 11:10:00,
2013-01-29 05:15:00,59.7,57.4,29.91,SE,141,10.0,12.0,92,0.00,,,0.00,Wunderground v.1.15,2013-01-29 11:15:00,
2013-01-29 05:20:00,59.7,57.4,29.91,SE,127,9.0,11.0,92,0.00,,,0.00,Wunderground v.1.15,2013-01-29 11:20:00,
2013-01-29 05:25:00,59.7,57.4,29.91,SSE,152,9.0,11.0,92,0.00,,,0.00,Wunderground v.1.15,2013-01-29 11:25:00,
2013-01-29 05:30:00,59.6,57.3,29.90,SSE,158,8.0,16.0,92,0.00,,,0.00,Wunderground v.1.15,2013-01-29 11:30:00,
2013-01-29 05:35:00,59.7,57.4,29.90,SSE,154,9.0,16.0,92,0.00,,,0.00,Wunderground v.1.15,2013-01-29 11:35:00,
2013-01-29 05:40:00,59.7,57.4,29.90,South,170,9.0,9.0,92,0.00,,,0.00,Wunderground v.1.15,2013-01-29 11:40:00,
2013-01-29 05:45:00,59.7,57.4,29.89,SE,129,9.0,9.0,92,0.00,,,0.00,Wunderground v.1.15,2013-01-29 11:45:00,
2013-01-29 05:50:00,59.7,57.4,29.89,SSE,149,9.0,9.0,92,0.00,,,0.00,Wunderground v.1.15,2013-01-29 11:50:00,
2013-01-29 05:55:00,59.6,57.3,29.88,SE,142,11.0,12.0,92,0.00,,,0.00,Wunderground v.1.15,2013-01-29 11:55:00,
2013-01-29 06:00:00,59.4,57.1,29.89,SE,125,12.0,12.0,92,0.00,,,0.00,Wunderground v.1.15,2013-01-29 12:00:00,
2013-01-29 06:05:00,59.4,57.1,29.89,SE,128,11.0,12.0,92,0.00,,,0.00,Wunderground v.1.15,2013-01-29 12:05:00,
2013-01-29 06:10:00,59.3,57.3,29.90,SE,137,10.0,10.0,93,0.00,,,0.00,Wunderground v.1.15,2013-01-29 12:10:00,
2013-01-29 06:15:00,59.3,57.3,29.90,South,175,9.0,10.0,93,0.00,,,0.00,Wunderground v.1.15,2013-01-29 12:15:00,
2013-01-29 06:20:00,59.3,57.3,29.90,SE,144,8.0,8.0,93,0.00,,,0.00,Wunderground v.1.15,2013-01-29 12:20:00,
2013-01-29 06:25:00,59.3,57.3,29.90,SE,140,8.0,8.0,93,0.00,,,0.00,Wunderground v.1.15,2013-01-29 12:25:00,
2013-01-29 06:30:00,59.2,57.2,29.90,SE,135,7.0,7.0,93,0.00,,,0.00,Wunderground v.1.15,2013-01-29 12:30:00,
2013-01-29 06:35:00,59.2,57.2,29.90,ESE,120,8.0,8.0,93,0.00,,,0.00,Wunderground v.1.15,2013-01-29 12:35:00,
2013-01-29 06:40:00,59.3,57.3,29.90,South,176,8.0,11.0,93,0.00,,,0.00,Wunderground v.1.15,2013-01-29 12:40:00,
2013-01-29 06:45:00,59.6,57.6,29.90,SE,136,10.0,11.0,93,0.00,,,0.00,Wunderground v.1.15,2013-01-29 12:45:00,
2013-01-29 06:50:00,59.6,57.6,29.90,SSE,157,11.0,13.0,93,0.00,,,0.00,Wunderground v.1.15,2013-01-29 12:50:00,
2013-01-29 06:55:00,59.8,57.8,29.90,SSE,148,11.0,13.0,93,0.00,,,0.00,Wunderground v.1.15,2013-01-29 12:55:00,
2013-01-29 07:00:00,59.8,57.8,29.90,SSE,168,11.0,15.0,93,0.00,,,0.00,Wunderground v.1.15,2013-01-29 13:00:00,
2013-01-29 07:05:00,59.8,57.8,29.90,South,169,11.0,15.0,93,0.00,,,0.00,Wunderground v.1.15,2013-01-29 13:05:00,
2013-01-29 07:10:00,59.7,57.7,29.90,SE,145,11.0,11.0,93,0.00,,,0.00,Wunderground v.1.15,2013-01-29 13:10:00,
2013-01-29 07:15:00,59.6,57.6,29.89,South,173,10.0,11.0,93,0.00,,,0.00,Wunderground v.1.15,2013-01-29 13:15:00,
2013-01-29 07:20:00,59.5,57.5,29.89,SE,133,10.0,10.0,93,0.00,,,0.00,Wunderground v.1.15,2013-01-29 13:20:00,
2013-01-29 07:25:00,59.4,57.4,29.88,SE,139,10.0,10.0,93,0.00,,,0.00,Wunderground v.1.15,2013-01-29 13:25:00,
2013-01-29 07:30:00,59.4,57.4,29.88,SE,140,9.0,9.0,93,0.00,,,0.00,Wunderground v.1.15,2013-01-29 13:30:00,
2013-01-29 07:35:00,59.4,57.4,29.88,SSE,158,10.0,15.0,93,0.00,,,0.00,Wunderground v.1.15,2013-01-29 13:35:00,
2013-01-29 07:40:00,59.4,57.4,29.88,ESE,118,11.0,11.0,93,0.00,,,0.00,Wunderground v.1.15,2013-01-29 13:40:00,
2013-01-29 07:45:00,59.4,57.4,29.88,SSE,152,10.0,11.0,93,0.00,,,0.00,Wunderground v.1.15,2013-01-29 13:45:00,
2013-01-29 07:50:00,59.4,57.4,29.88,SSE,168,10.0,10.0,93,0.00,,,0.00,Wunderground v.1.15,2013-01-29 13:50:00,
2013-01-29 07:55:00,59.5,57.5,29.88,SE,126,10.0,10.0,93,0.00,,,0.00,Wunderground v.1.15,2013-01-29 13:55:00,
2013-01-29 08:00:00,59.5,57.5,29.88,SSW,193,10.0,10.0,93,0.00,,,0.00,Wunderground v.1.15,2013-01-29 14:00:00,
2013-01-29 08:05:00,59.6,57.6,29.87,SE,139,11.0,13.0,93,0.00,,,0.00,Wunderground v.1.15,2013-01-29 14:05:00,
2013-01-29 08:10:00,59.7,57.7,29.87,South,171,11.0,11.0,93,0.00,,,0.00,Wunderground v.1.15,2013-01-29 14:10:00,
2013-01-29 08:15:00,59.8,57.8,29.87,SE,142,11.0,11.0,93,0.00,,,0.00,Wunderground v.1.15,2013-01-29 14:15:00,
2013-01-29 08:20:00,59.9,57.9,29.86,SE,141,10.0,12.0,93,0.00,,,0.00,Wunderground v.1.15,2013-01-29 14:20:00,
2013-01-29 08:25:00,60.0,58.0,29.86,SE,125,9.0,12.0,93,0.00,,,0.00,Wunderground v.1.15,2013-01-29 14:25:00,
2013-01-29 08:30:00,60.1,58.1,29.86,SSE,157,10.0,10.0,93,0.00,,,0.00,Wunderground v.1.15,2013-01-29 14:30:00,
2013-01-29 08:40:00,60.3,58.3,29.86,SSE,158,10.0,10.0,93,0.00,,,0.00,Wunderground v.1.15,2013-01-29 14:40:00,
2013-01-29 08:45:00,60.5,58.2,29.86,SE,137,11.0,11.0,92,0.00,,,0.00,Wunderground v.1.15,2013-01-29 14:45:00,
2013-01-29 08:50:00,60.7,58.4,29.86,SSW,203,11.0,16.0,92,0.00,,,0.00,Wunderground v.1.15,2013-01-29 14:50:00,
2013-01-29 08:55:00,60.7,58.4,29.86,SSE,168,12.0,16.0,92,0.00,,,0.00,Wunderground v.1.15,2013-01-29 14:55:00,
2013-01-29 09:00:00,60.8,58.2,29.85,SSE,156,12.0,12.0,91,0.00,,,0.00,Wunderground v.1.15,2013-01-29 15:00:00,
2013-01-29 09:05:00,60.9,58.3,29.85,SE,135,12.0,12.0,91,0.00,,,0.00,Wunderground v.1.15,2013-01-29 15:05:00,
2013-01-29 09:10:00,60.9,58.3,29.86,SSE,160,12.0,12.0,91,0.00,,,0.00,Wunderground v.1.15,2013-01-29 15:10:00,
2013-01-29 09:15:00,60.9,58.3,29.86,SE,126,11.0,12.0,91,0.00,,,0.00,Wunderground v.1.15,2013-01-29 15:15:00,
2013-01-29 09:20:00,60.9,58.3,29.85,SSE,154,11.0,11.0,91,0.00,,,0.00,Wunderground v.1.15,2013-01-29 15:20:00,
2013-01-29 09:25:00,61.0,58.4,29.85,SSE,148,11.0,11.0,91,0.00,,,0.00,Wunderground v.1.15,2013-01-29 15:25:00,
2013-01-29 09:30:00,61.1,58.5,29.85,SSE,148,11.0,16.0,91,0.00,,,0.00,Wunderground v.1.15,2013-01-29 15:30:00,
2013-01-29 09:35:00,61.2,58.2,29.85,SSE,158,11.0,16.0,90,0.00,,,0.00,Wunderground v.1.15,2013-01-29 15:35:00,
2013-01-29 09:40:00,61.3,58.3,29.85,SSE,155,11.0,22.0,90,0.00,,,0.00,Wunderground v.1.15,2013-01-29 15:40:00,
2013-01-29 09:45:00,61.3,58.3,29.85,ESE,114,11.0,22.0,90,0.00,,,0.00,Wunderground v.1.15,2013-01-29 15:45:00,
2013-01-29 09:50:00,61.4,58.4,29.85,SE,141,11.0,13.0,90,0.00,,,0.00,Wunderground v.1.15,2013-01-29 15:50:00,
2013-01-29 09:55:00,61.5,58.2,29.85,South,169,11.0,13.0,89,0.00,,,0.00,Wunderground v.1.15,2013-01-29 15:55:00,
2013-01-29 10:00:00,61.6,58.3,29.85,SE,128,11.0,11.0,89,0.00,,,0.00,Wunderground v.1.15,2013-01-29 16:00:00,
2013-01-29 10:05:00,61.8,58.5,29.84,SSE,160,11.0,11.0,89,0.00,,,0.00,Wunderground v.1.15,2013-01-29 16:05:00,
2013-01-29 10:10:00,62.0,58.4,29.84,SSE,152,11.0,13.0,88,0.00,,,0.00,Wunderground v.1.15,2013-01-29 16:10:00,
2013-01-29 10:15:00,62.3,58.7,29.84,SSE,152,11.0,18.0,88,0.00,,,0.00,Wunderground v.1.15,2013-01-29 16:15:00,
2013-01-29 10:20:00,62.5,58.9,29.84,SSE,162,11.0,13.0,88,0.00,,,0.00,Wunderground v.1.15,2013-01-29 16:20:00,
2013-01-29 10:25:00,62.6,58.7,29.84,SSE,153,12.0,18.0,87,0.00,,,0.00,Wunderground v.1.15,2013-01-29 16:25:00,
2013-01-29 10:30:00,62.8,58.9,29.83,SSE,155,13.0,16.0,87,0.00,,,0.00,Wunderground v.1.15,2013-01-29 16:30:00,
2013-01-29 10:35:00,63.0,59.1,29.83,SSE,156,14.0,16.0,87,0.00,,,0.00,Wunderground v.1.15,2013-01-29 16:35:00,
2013-01-29 10:40:00,63.2,59.3,29.83,South,175,15.0,15.0,87,0.00,,,0.00,Wunderground v.1.15,2013-01-29 16:40:00,
2013-01-29 10:45:00,63.4,59.1,29.82,South,175,15.0,21.0,86,0.00,,,0.00,Wunderground v.1.15,2013-01-29 16:45:00,
2013-01-29 10:50:00,63.8,59.5,29.82,SSE,161,15.0,16.0,86,0.00,,,0.00,Wunderground v.1.15,2013-01-29 16:50:00,
2013-01-29 10:55:00,64.0,59.4,29.81,SSE,158,14.0,16.0,85,0.00,,,0.00,Wunderground v.1.15,2013-01-29 16:55:00,
2013-01-29 11:00:00,64.0,59.4,29.81,SE,136,14.0,20.0,85,0.00,,,0.00,Wunderground v.1.15,2013-01-29 17:00:00,
2013-01-29 11:05:00,64.1,59.5,29.81,SSE,149,16.0,20.0,85,0.00,,,0.00,Wunderground v.1.15,2013-01-29 17:05:00,
2013-01-29 11:10:00,64.4,59.8,29.80,South,177,16.0,23.0,85,0.00,,,0.00,Wunderground v.1.15,2013-01-29 17:10:00,
2013-01-29 11:15:00,64.7,59.8,29.79,SE,144,15.0,23.0,84,0.00,,,0.00,Wunderground v.1.15,2013-01-29 17:15:00,
2013-01-29 11:20:00,64.6,59.3,29.79,South,175,16.0,16.0,83,0.00,,,0.00,Wunderground v.1.15,2013-01-29 17:20:00,
2013-01-29 11:25:00,64.5,59.6,29.78,SE,131,16.0,17.0,84,0.00,,,0.00,Wunderground v.1.15,2013-01-29 17:25:00,
2013-01-29 11:30:00,64.6,59.7,29.78,SSE,153,14.0,20.0,84,0.00,,,0.00,Wunderground v.1.15,2013-01-29 17:30:00,
2013-01-29 11:40:00,65.4,60.1,29.77,SE,129,17.0,22.0,83,0.00,,,0.00,Wunderground v.1.15,2013-01-29 17:40:00,
2013-01-29 11:45:00,65.6,60.0,29.76,SE,140,16.0,26.0,82,0.00,,,0.00,Wunderground v.1.15,2013-01-29 17:45:00,
2013-01-29 11:50:00,65.6,59.6,29.76,SE,137,16.0,16.0,81,0.00,,,0.00,Wunderground v.1.15,2013-01-29 17:50:00,
2013-01-29 11:55:00,65.8,59.8,29.76,SSE,160,16.0,16.0,81,0.00,,,0.00,Wunderground v.1.15,2013-01-29 17:55:00,
2013-01-29 12:00:00,66.0,60.0,29.75,SSE,154,16.0,18.0,81,0.00,,,0.00,Wunderground v.1.15,2013-01-29 18:00:00,
2013-01-29 12:05:00,65.9,59.6,29.76,SSE,148,18.0,19.0,80,0.00,,,0.00,Wunderground v.1.15,2013-01-29 18:05:00,
2013-01-29 12:10:00,66.0,60.0,29.75,SE,131,16.0,16.0,81,0.00,,,0.00,Wunderground v.1.15,2013-01-29 18:10:00,
2013-01-29 12:15:00,66.5,60.1,29.75,SSW,195,13.0,16.0,80,0.00,,,0.00,Wunderground v.1.15,2013-01-29 18:15:00,
2013-01-29 12:20:00,67.2,60.1,29.74,SE,144,15.0,15.0,78,0.00,,,0.00,Wunderground v.1.15,2013-01-29 18:20:00,
2013-01-29 12:25:00,67.3,60.2,29.73,SSE,152,17.0,17.0,78,0.00,,,0.00,Wunderground v.1.15,2013-01-29 18:25:00,
2013-01-29 12:30:00,67.0,59.9,29.73,SSE,147,17.0,17.0,78,0.00,,,0.00,Wunderground v.1.15,2013-01-29 18:30:00,
2013-01-29 12:35:00,66.8,60.1,29.72,SSE,156,17.0,20.0,79,0.00,,,0.00,Wunderground v.1.15,2013-01-29 18:35:00,
2013-01-29 12:40:00,66.8,59.7,29.72,South,173,16.0,17.0,78,0.00,,,0.00,Wunderground v.1.15,2013-01-29 18:40:00,
2013-01-29 12:45:00,66.9,60.2,29.72,SSE,155,16.0,27.0,79,0.00,,,0.00,Wunderground v.1.15,2013-01-29 18:45:00,
2013-01-29 12:50:00,67.4,59.9,29.71,SSE,165,16.0,20.0,77,0.00,,,0.00,Wunderground v.1.15,2013-01-29 18:50:00,
2013-01-29 12:55:00,67.7,60.2,29.70,South,172,17.0,20.0,77,0.00,,,0.00,Wunderground v.1.15,2013-01-29 18:55:00,
2013-01-29 13:00:00,67.8,60.3,29.70,SE,126,17.0,17.0,77,0.00,,,0.00,Wunderground v.1.15,2013-01-29 19:00:00,
2013-01-29 13:05:00,68.1,60.2,29.70,SE,130,15.0,17.0,76,0.00,,,0.00,Wunderground v.1.15,2013-01-29 19:05:00,
2013-01-29 13:10:00,68.4,60.2,29.70,SSE,153,16.0,24.0,75,0.00,,,0.00,Wunderground v.1.15,2013-01-29 19:10:00,
2013-01-29 13:15:00,68.5,60.6,29.69,SSE,147,17.0,24.0,76,0.00,,,0.00,Wunderground v.1.15,2013-01-29 19:15:00,
2013-01-29 13:20:00,68.6,60.4,29.69,SE,146,17.0,17.0,75,0.00,,,0.00,Wunderground v.1.15,2013-01-29 19:20:00,
2013-01-29 13:25:00,68.6,60.4,29.69,SSE,150,17.0,17.0,75,0.00,,,0.00,Wunderground v.1.15,2013-01-29 19:25:00,
2013-01-29 13:30:00,68.9,60.3,29.69,SSE,152,18.0,27.0,74,0.00,,,0.00,Wunderground v.1.15,2013-01-29 19:30:00,
2013-01-29 13:35:00,69.0,60.4,29.68,SSE,166,19.0,27.0,74,0.00,,,0.00,Wunderground v.1.15,2013-01-29 19:35:00,
2013-01-29 13:40:00,69.5,60.5,29.67,SSW,207,18.0,23.0,73,0.00,,,0.00,Wunderground v.1.15,2013-01-29 19:40:00,
2013-01-29 13:45:00,69.8,60.0,29.68,SE,127,18.0,23.0,71,0.00,,,0.00,Wunderground v.1.15,2013-01-29 19:45:00,
2013-01-29 13:50:00,69.7,59.5,29.67,SSE,160,18.0,18.0,70,0.00,,,0.00,Wunderground v.1.15,2013-01-29 19:50:00,
2013-01-29 13:55:00,69.4,59.6,29.67,SSE,148,18.0,18.0,71,0.00,,,0.00,Wunderground v.1.15,2013-01-29 19:55:00,
2013-01-29 14:00:00,69.6,59.4,29.66,SSE,157,18.0,18.0,70,0.00,,,0.00,Wunderground v.1.15,2013-01-29 20:00:00,
2013-01-29 14:05:00,69.6,59.8,29.66,SE,138,18.0,18.0,71,0.00,,,0.00,Wunderground v.1.15,2013-01-29 20:05:00,
2013-01-29 14:10:00,69.2,59.4,29.65,South,183,18.0,24.0,71,0.00,,,0.00,Wunderground v.1.15,2013-01-29 20:10:00,
2013-01-29 14:20:00,69.3,59.9,29.65,South,188,16.0,22.0,72,0.00,,,0.00,Wunderground v.1.15,2013-01-29 20:20:00,
2013-01-29 14:25:00,70.3,60.1,29.65,SSE,150,15.0,22.0,70,0.00,,,0.00,Wunderground v.1.15,2013-01-29 20:25:00,
2013-01-29 14:30:00,70.4,59.7,29.64,SSE,156,18.0,18.0,69,0.00,,,0.00,Wunderground v.1.15,2013-01-29 20:30:00,
2013-01-29 14:35:00,70.1,59.5,29.64,SSE,167,19.0,19.0,69,0.00,,,0.00,Wunderground v.1.15,2013-01-29 20:35:00,
2013-01-29 14:40:00,69.9,59.3,29.64,SSE,150,18.0,18.0,69,0.00,,,0.00,Wunderground v.1.15,2013-01-29 20:40:00,
2013-01-29 14:45:00,69.9,59.3,29.64,SSE,156,17.0,18.0,69,0.00,,,0.00,Wunderground v.1.15,2013-01-29 20:45:00,
2013-01-29 14:50:00,69.5,59.3,29.64,SSE,152,15.0,21.0,70,0.00,,,0.00,Wunderground v.1.15,2013-01-29 20:50:00,
2013-01-29 14:55:00,69.2,59.4,29.65,SE,136,14.0,23.0,71,0.00,,,0.00,Wunderground v.1.15,2013-01-29 20:55:00,
2013-01-29 15:00:00,69.2,59.0,29.64,ESE,120,15.0,15.0,70,0.00,,,0.00,Wunderground v.1.15,2013-01-29 21:00:00,
2013-01-29 15:05:00,69.0,58.8,29.63,South,170,17.0,17.0,70,0.00,,,0.00,Wunderground v.1.15,2013-01-29 21:05:00,
2013-01-29 15:10:00,68.7,58.9,29.63,SSE,154,17.0,17.0,71,0.00,,,0.00,Wunderground v.1.15,2013-01-29 21:10:00,
2013-01-29 15:15:00,68.5,59.1,29.63,SE,146,15.0,17.0,72,0.00,,,0.00,Wunderground v.1.15,2013-01-29 21:15:00,
2013-01-29 15:20:00,68.3,58.9,29.63,SE,146,16.0,25.0,72,0.00,,,0.00,Wunderground v.1.15,2013-01-29 21:20:00,
2013-01-29 15:25:00,68.2,58.8,29.63,SSW,192,17.0,25.0,72,0.00,,,0.00,Wunderground v.1.15,2013-01-29 21:25:00,
2013-01-29 15:30:00,68.1,58.7,29.63,SSE,148,16.0,17.0,72,0.00,,,0.00,Wunderground v.1.15,2013-01-29 21:30:00,
2013-01-29 15:35:00,68.1,59.1,29.63,SSE,150,15.0,22.0,73,0.00,,,0.00,Wunderground v.1.15,2013-01-29 21:35:00,
2013-01-29 15:40:00,68.1,59.1,29.63,SSE,154,15.0,19.0,73,0.00,,,0.00,Wunderground v.1.15,2013-01-29 21:40:00,
2013-01-29 15:45:00,67.8,58.8,29.63,South,173,16.0,19.0,73,0.00,,,0.00,Wunderground v.1.15,2013-01-29 21:45:00,
2013-01-29 15:50:00,67.6,59.0,29.62,SSE,149,16.0,16.0,74,0.00,,,0.00,Wunderground v.1.15,2013-01-29 21:50:00,
2013-01-29 15:55:00,67.3,58.7,29.62,SSE,167,15.0,16.0,74,0.00,,,0.00,Wunderground v.1.15,2013-01-29 21:55:00,
2013-01-29 16:00:00,67.2,59.0,29.61,SSE,150,14.0,14.0,75,0.00,,,0.00,Wunderground v.1.15,2013-01-29 22:00:00,
2013-01-29 16:05:00,67.1,58.9,29.61,SE,139,15.0,15.0,75,0.00,,,0.00,Wunderground v.1.15,2013-01-29 22:05:00,
2013-01-29 16:10:00,67.0,58.8,29.61,ESE,112,15.0,15.0,75,0.00,,,0.00,Wunderground v.1.15,2013-01-29 22:10:00,
2013-01-29 16:15:00,67.0,58.8,29.60,East,85,15.0,15.0,75,0.00,,,0.00,Wunderground v.1.15,2013-01-29 22:15:00,
2013-01-29 16:20:00,67.0,59.2,29.59,SE,141,14.0,19.0,76,0.00,,,0.00,Wunderground v.1.15,2013-01-29 22:20:00,
2013-01-29 16:25:00,66.9,59.1,29.59,South,180,15.0,19.0,76,0.00,,,0.00,Wunderground v.1.15,2013-01-29 22:25:00,
2013-01-29 16:30:00,66.9,59.1,29.59,SE,139,17.0,22.0,76,0.00,,,0.00,Wunderground v.1.15,2013-01-29 22:30:00,
2013-01-29 16:35:00,66.8,59.0,29.58,SE,139,18.0,22.0,76,0.00,,,0.00,Wunderground v.1.15,2013-01-29 22:35:00,
2013-01-29 16:40:00,66.8,59.0,29.58,SSE,152,18.0,18.0,76,0.00,,,0.00,Wunderground v.1.15,2013-01-29 22:40:00,
2013-01-29 16:45:00,66.7,58.9,29.58,SSE,148,17.0,18.0,76,0.00,,,0.00,Wunderground v.1.15,2013-01-29 22:45:00,
2013-01-29 16:50:00,66.6,59.2,29.59,SE,135,16.0,24.0,77,0.00,,,0.00,Wunderground v.1.15,2013-01-29 22:50:00,
2013-01-29 16:55:00,66.6,59.2,29.58,ESE,111,17.0,24.0,77,0.00,,,0.00,Wunderground v.1.15,2013-01-29 22:55:00,
2013-01-29 17:00:00,66.5,59.4,29.58,SE,125,18.0,18.0,78,0.00,,,0.00,Wunderground v.1.15,2013-01-29 23:00:00,
2013-01-29 17:05:00,66.5,59.1,29.57,SE,131,18.0,18.0,77,0.00,,,0.00,Wunderground v.1.15,2013-01-29 23:05:00,
2013-01-29 17:10:00,66.5,59.4,29.57,SSE,154,17.0,20.0,78,0.00,,,0.00,Wunderground v.1.15,2013-01-29 23:10:00,
2013-01-29 17:15:00,66.5,59.4,29.57,SE,141,17.0,20.0,78,0.00,,,0.00,Wunderground v.1.15,2013-01-29 23:15:00,
2013-01-29 17:20:00,66.2,59.1,29.57,SE,138,18.0,18.0,78,0.00,,,0.00,Wunderground v.1.15,2013-01-29 23:20:00,
2013-01-29 17:25:00,66.2,59.1,29.56,SE,146,18.0,24.0,78,0.00,,,0.00,Wunderground v.1.15,2013-01-29 23:25:00,
2013-01-29 17:35:00,66.3,59.6,29.56,ESE,121,20.0,21.0,79,0.00,,,0.00,Wunderground v.1.15,2013-01-29 23:35:00,
2013-01-29 17:40:00,65.9,59.9,29.56,SE,135,21.0,21.0,81,0.00,,,0.00,Wunderground v.1.15,2013-01-29 23:40:00,
2013-01-29 17:45:00,65.4,59.8,29.55,SE,144,19.0,24.0,82,0.00,,,0.00,Wunderground v.1.15,2013-01-29 23:45:00,
2013-01-29 17:50:00,65.2,59.6,29.55,South,170,19.0,19.0,82,0.00,,,0.00,Wunderground v.1.15,2013-01-29 23:50:00,
2013-01-29 17:55:00,65.0,59.7,29.55,SSE,154,18.0,19.0,83,0.00,,,0.00,Wunderground v.1.15,2013-01-29 23:55:00,
2013-01-29 18:00:00,64.7,59.8,29.54,SSE,149,16.0,21.0,84,0.00,,,0.00,Wunderground v.1.15,2013-01-30 00:00:00,
2013-01-29 18:05:00,64.7,59.8,29.54,SSE,158,17.0,21.0,84,0.00,,,0.00,Wunderground v.1.15,2013-01-30 00:05:00,
2013-01-29 18:10:00,64.7,59.8,29.54,SE,145,18.0,21.0,84,0.00,,,0.00,Wunderground v.1.15,2013-01-30 00:10:00,
2013-01-29 18:15:00,64.7,59.8,29.54,SE,144,17.0,21.0,84,0.00,,,0.00,Wunderground v.1.15,2013-01-30 00:15:00,
2013-01-29 18:20:00,64.6,59.7,29.54,SSE,148,15.0,17.0,84,0.00,,,0.00,Wunderground v.1.15,2013-01-30 00:20:00,
2013-01-29 18:25:00,64.6,59.3,29.53,SSE,156,16.0,17.0,83,0.00,,,0.00,Wunderground v.1.15,2013-01-30 00:25:00,
2013-01-29 18:30:00,64.7,59.4,29.53,SE,135,15.0,15.0,83,0.00,,,0.00,Wunderground v.1.15,2013-01-30 00:30:00,
2013-01-29 18:35:00,64.7,59.4,29.52,SSE,156,14.0,17.0,83,0.00,,,0.00,Wunderground v.1.15,2013-01-30 00:35:00,
2013-01-29 18:40:00,64.7,59.4,29.52,SE,142,14.0,14.0,83,0.00,,,0.00,Wunderground v.1.15,2013-01-30 00:40:00,
2013-01-29 18:45:00,64.7,59.1,29.51,SE,137,14.0,14.0,82,0.00,,,0.00,Wunderground v.1.15,2013-01-30 00:45:00,
2013-01-29 18:50:00,64.6,59.0,29.51,SE,137,13.0,13.0,82,0.00,,,0.00,Wunderground v.1.15,2013-01-30 00:50:00,
2013-01-29 18:55:00,64.6,59.0,29.51,SE,141,12.0,15.0,82,0.00,,,0.00,Wunderground v.1.15,2013-01-30 00:55:00,
2013-01-29 19:00:00,64.7,59.1,29.50,SSE,147,14.0,14.0,82,0.00,,,0.00,Wunderground v.1.15,2013-01-30 01:00:00,
2013-01-29 19:05:00,64.7,58.7,29.50,South,171,14.0,14.0,81,0.00,,,0.00,Wunderground v.1.15,2013-01-30 01:05:00,
2013-01-29 19:10:00,64.7,58.7,29.49,SSE,162,13.0,13.0,81,0.00,,,0.00,Wunderground v.1.15,2013-01-30 01:10:00,
2013-01-29 19:15:00,64.7,58.7,29.49,SE,139,12.0,13.0,81,0.00,,,0.00,Wunderground v.1.15,2013-01-30 01:15:00,
2013-01-29 19:20:00,64.7,58.7,29.48,SE,131,12.0,12.0,81,0.00,,,0.00,Wunderground v.1.15,2013-01-30 01:20:00,
2013-01-29 19:25:00,64.7,58.7,29.48,SE,131,12.0,13.0,81,0.00,,,0.00,Wunderground v.1.15,2013-01-30 01:25:00,
2013-01-29 19:30:00,64.5,58.9,29.48,SSE,154,11.0,12.0,82,0.00,,,0.00,Wunderground v.1.15,2013-01-30 01:30:00,
2013-01-29 19:35:00,64.4,59.1,29.48,SE,137,11.0,12.0,83,0.00,,,0.00,Wunderground v.1.15,2013-01-30 01:35:00,
2013-01-29 19:40:00,63.9,59.0,29.48,SSE,153,11.0,11.0,84,0.00,,,0.00,Wunderground v.1.15,2013-01-30 01:40:00,
2013-01-29 19:45:00,63.5,58.9,29.46,SSE,159,11.0,11.0,85,0.00,,,0.00,Wunderground v.1.15,2013-01-30 01:45:00,
2013-01-29 19:50:00,63.2,58.9,29.45,SE,140,11.0,12.0,86,0.00,,,0.01,Wunderground v.1.15,2013-01-30 01:50:00,
2013-01-29 20:00:00,63.3,59.4,29.45,SE,129,12.0,12.0,87,0.00,,,0.01,Wunderground v.1.15,2013-01-30 02:00:00,
2013-01-29 20:05:00,63.1,59.5,29.44,SE,129,12.0,13.0,88,0.00,,,0.01,Wunderground v.1.15,2013-01-30 02:05:00,
2013-01-29 20:10:00,63.1,59.5,29.44,SE,141,12.0,14.0,88,0.00,,,0.01,Wunderground v.1.15,2013-01-30 02:10:00,
2013-01-29 20:15:00,63.0,59.7,29.43,SE,133,12.0,14.0,89,0.19,,,0.03,Wunderground v.1.15,2013-01-30 02:15:00,
2013-01-29 20:20:00,63.0,59.7,29.42,SE,140,12.0,12.0,89,0.07,,,0.03,Wunderground v.1.15,2013-01-30 02:20:00,
2013-01-29 20:25:00,63.0,59.7,29.42,SE,125,13.0,13.0,89,0.05,,,0.03,Wunderground v.1.15,2013-01-30 02:25:00,
2013-01-29 20:30:00,63.1,59.5,29.42,SE,128,13.0,17.0,88,0.04,,,0.04,Wunderground v.1.15,2013-01-30 02:30:00,
2013-01-29 20:35:00,63.2,59.6,29.41,SSE,166,14.0,17.0,88,0.04,,,0.04,Wunderground v.1.15,2013-01-30 02:35:00,
2013-01-29 20:40:00,63.4,59.5,29.41,SSE,151,14.0,24.0,87,0.04,,,0.04,Wunderground v.1.15,2013-01-30 02:40:00,
2013-01-29 20:45:00,63.3,59.7,29.40,SSE,160,15.0,24.0,88,0.17,,,0.08,Wunderground v.1.15,2013-01-30 02:45:00,
2013-01-29 20:50:00,63.1,59.5,29.39,SSW,195,14.0,16.0,88,0.07,,,0.08,Wunderground v.1.15,2013-01-30 02:50:00,
2013-01-29 20:55:00,63.5,59.6,29.40,SSE,150,13.0,16.0,87,0.04,,,0.08,Wunderground v.1.15,2013-01-30 02:55:00,
2013-01-29 21:00:00,64.0,59.7,29.39,SSE,155,13.0,22.0,86,0.00,,,0.09,Wunderground v.1.15,2013-01-30 03:00:00,
2013-01-29 21:05:00,64.1,60.2,29.42,West,271,12.0,22.0,87,0.13,,,0.10,Wunderground v.1.15,2013-01-30 03:05:00,
2013-01-29 21:10:00,61.4,55.5,29.50,NW,304,11.0,11.0,81,2.12,,,0.19,Wunderground v.1.15,2013-01-30 03:10:00,
2013-01-29 21:25:00,54.7,52.1,29.50,WNW,295,9.0,13.0,91,0.55,,,0.50,Wunderground v.1.15,2013-01-30 03:25:00,
2013-01-29 21:30:00,54.0,51.7,29.51,NNW,331,7.0,7.0,92,1.27,,,0.58,Wunderground v.1.15,2013-01-30 03:30:00,
2013-01-29 21:35:00,53.4,51.4,29.52,WNW,287,7.0,10.0,93,0.42,,,0.65,Wunderground v.1.15,2013-01-30 03:35:00,
2013-01-29 21:40:00,53.0,51.3,29.52,NW,316,7.0,7.0,94,0.33,,,0.69,Wunderground v.1.15,2013-01-30 03:40:00,
2013-01-29 21:45:00,52.9,51.2,29.51,NW,311,6.0,7.0,94,0.31,,,0.72,Wunderground v.1.15,2013-01-30 03:45:00,
2013-01-29 21:55:00,52.7,51.3,29.50,NNW,341,4.0,5.0,95,0.13,,,0.74,Wunderground v.1.15,2013-01-30 03:55:00,
2013-01-29 22:00:00,52.7,51.3,29.50,NNW,338,4.0,4.0,95,0.09,,,0.74,Wunderground v.1.15,2013-01-30 04:00:00,
2013-01-29 22:05:00,52.6,51.2,29.51,North,7,4.0,5.0,95,0.30,,,0.76,Wunderground v.1.15,2013-01-30 04:05:00,
2013-01-29 22:10:00,52.5,51.1,29.51,North,350,4.0,4.0,95,0.19,,,0.77,Wunderground v.1.15,2013-01-30 04:10:00,
2013-01-29 22:15:00,52.4,51.0,29.52,NNW,331,3.0,5.0,95,0.21,,,0.79,Wunderground v.1.15,2013-01-30 04:15:00,
2013-01-29 22:20:00,52.4,51.0,29.51,NNW,342,2.0,2.0,95,0.15,,,0.80,Wunderground v.1.15,2013-01-30 04:20:00,
2013-01-29 22:25:00,52.3,50.9,29.51,NNW,347,3.0,3.0,95,0.19,,,0.82,Wunderground v.1.15,2013-01-30 04:25:00,
2013-01-29 22:35:00,52.1,51.0,29.51,NNW,341,3.0,5.0,96,0.26,,,0.84,Wunderground v.1.15,2013-01-30 04:35:00,
2013-01-29 22:45:00,51.9,50.8,29.51,NNW,344,2.0,5.0,96,0.13,,,0.86,Wunderground v.1.15,2013-01-30 04:45:00,
2013-01-29 22:50:00,51.8,50.7,29.52,NNW,343,2.0,5.0,96,0.08,,,0.87,Wunderground v.1.15,2013-01-30 04:50:00,
2013-01-29 22:55:00,51.8,50.7,29.53,NW,312,1.0,5.0,96,0.13,,,0.88,Wunderground v.1.15,2013-01-30 04:55:00,
2013-01-29 23:00:00,51.7,50.6,29.52,NW,315,1.0,1.0,96,0.31,,,0.90,Wunderground v.1.15,2013-01-30 05:00:00,
2013-01-29 23:05:00,51.7,50.6,29.51,NW,316,0.0,5.0,96,0.13,,,0.91,Wunderground v.1.15,2013-01-30 05:05:00,
2013-01-29 23:10:00,51.6,50.5,29.52,NW,315,1.0,1.0,96,0.16,,,0.92,Wunderground v.1.15,2013-01-30 05:10:00,
2013-01-29 23:15:00,51.6,50.5,29.52,NW,315,1.0,5.0,96,0.07,,,0.92,Wunderground v.1.15,2013-01-30 05:15:00,
2013-01-29 23:20:00,51.6,50.5,29.52,NW,315,0.0,5.0,96,0.04,,,0.92,Wunderground v.1.15,2013-01-30 05:20:00,
2013-01-29 23:25:00,51.6,50.5,29.53,NW,315,0.0,5.0,96,0.04,,,0.93,Wunderground v.1.15,2013-01-30 05:25:00,
2013-01-29 23:30:00,51.6,50.5,29.52,NW,316,0.0,5.0,96,0.04,,,0.93,Wunderground v.1.15,2013-01-30 05:30:00,
2013-01-29 23:35:00,51.5,50.4,29.52,NW,315,0.0,5.0,96,0.05,,,0.94,Wunderground v.1.15,2013-01-30 05:35:00,
2013-01-29 23:45:00,51.4,50.3,29.50,NW,315,0.0,5.0,96,0.05,,,0.94,Wunderground v.1.15,2013-01-30 05:45:00,
2013-01-29 23:50:00,51.4,50.3,29.51,NW,315,1.0,1.0,96,0.04,,,0.94,Wunderground v.1.15,2013-01-30 05:50:00,
2013-01-29 23:55:00,51.3,50.2,29.51,NW,315,0.0,5.0,96,0.00,,,0.94,Wunderground v.1.15,2013-01-30 05:55:00,